Terminal Aerodrome Forecast
Issued by NWS Nashville, TN

Home | Current Version | Previous Version | Text Only | Print | Product List | Glossary On
Versions: 1 2 3 4 5 6 7 8 9 10 11 12 13 14 15 16 17 18 19 20 21 22 23 24 25 26 27 28
000
FTUS44 KOHX 191400 AAA
TAFBNA
TAF AMD
KBNA 191426Z 1914/2012 16005KT 5SM RA BKN006 OVC025
     FM191500 21009G15KT P6SM VCSH BKN015 OVC035
     FM192200 22011G18KT P6SM VCTS SCT025 BKN035CB=

USA.gov is the U.S. government's official web portal to all federal, state and local government web resources and services.